sensor_id;sensor_type;location;lat;lon;timestamp;temperature;humidity
23475;DHT22;11910;52.086;21.066;2023-07-02T00:00:59;18.50;99.80
23475;DHT22;11910;52.086;21.066;2023-07-02T00:03:25;18.40;99.50
23475;DHT22;11910;52.086;21.066;2023-07-02T00:05:51;18.40;98.40
23475;DHT22;11910;52.086;21.066;2023-07-02T00:08:21;18.40;99.20
23475;DHT22;11910;52.086;21.066;2023-07-02T00:10:46;18.40;99.90
23475;DHT22;11910;52.086;21.066;2023-07-02T00:13:12;18.30;99.90
23475;DHT22;11910;52.086;21.066;2023-07-02T00:15:38;18.40;99.80
23475;DHT22;11910;52.086;21.066;2023-07-02T00:18:03;18.30;99.90
23475;DHT22;11910;52.086;21.066;2023-07-02T00:20:29;18.30;99.00
23475;DHT22;11910;52.086;21.066;2023-07-02T00:22:55;18.20;99.90
23475;DHT22;11910;52.086;21.066;2023-07-02T00:25:21;18.20;99.90
23475;DHT22;11910;52.086;21.066;2023-07-02T00:27:47;18.20;99.50
23475;DHT22;11910;52.086;21.066;2023-07-02T00:30:13;18.20;98.40
23475;DHT22;11910;52.086;21.066;2023-07-02T00:32:39;18.10;99.10
23475;DHT22;11910;52.086;21.066;2023-07-02T00:35:05;18.10;99.90
23475;DHT22;11910;52.086;21.066;2023-07-02T00:37:30;18.00;98.90
23475;DHT22;11910;52.086;21.066;2023-07-02T00:39:56;18.00;99.20
23475;DHT22;11910;52.086;21.066;2023-07-02T00:42:22;18.00;99.90
23475;DHT22;11910;52.086;21.066;2023-07-02T00:44:48;18.00;99.90
23475;DHT22;11910;52.086;21.066;2023-07-02T00:47:14;18.00;99.10
23475;DHT22;11910;52.086;21.066;2023-07-02T00:49:41;17.90;99.90
23475;DHT22;11910;52.086;21.066;2023-07-02T00:52:07;17.90;99.70
23475;DHT22;11910;52.086;21.066;2023-07-02T00:54:32;17.90;98.70
23475;DHT22;11910;52.086;21.066;2023-07-02T00:56:58;17.90;97.50
23475;DHT22;11910;52.086;21.066;2023-07-02T00:59:30;17.80;97.50
23475;DHT22;11910;52.086;21.066;2023-07-02T01:01:56;17.80;96.70
23475;DHT22;11910;52.086;21.066;2023-07-02T01:04:22;17.70;97.40
23475;DHT22;11910;52.086;21.066;2023-07-02T01:06:53;17.70;97.60
23475;DHT22;11910;52.086;21.066;2023-07-02T01:09:26;17.70;96.70
23475;DHT22;11910;52.086;21.066;2023-07-02T01:12:00;17.60;96.00
23475;DHT22;11910;52.086;21.066;2023-07-02T01:14:38;17.60;95.70
23475;DHT22;11910;52.086;21.066;2023-07-02T01:17:06;17.50;96.60
23475;DHT22;11910;52.086;21.066;2023-07-02T01:19:48;17.50;98.70
23475;DHT22;11910;52.086;21.066;2023-07-02T01:22:17;17.50;99.30
23475;DHT22;11910;52.086;21.066;2023-07-02T01:24:44;17.40;97.40
23475;DHT22;11910;52.086;21.066;2023-07-02T01:27:11;17.40;96.10
23475;DHT22;11910;52.086;21.066;2023-07-02T01:29:37;17.30;96.00
23475;DHT22;11910;52.086;21.066;2023-07-02T01:32:03;17.30;97.90
23475;DHT22;11910;52.086;21.066;2023-07-02T01:34:29;17.20;99.20
23475;DHT22;11910;52.086;21.066;2023-07-02T01:36:54;17.20;99.00
23475;DHT22;11910;52.086;21.066;2023-07-02T01:39:20;17.10;98.80
23475;DHT22;11910;52.086;21.066;2023-07-02T01:41:50;17.10;96.60
23475;DHT22;11910;52.086;21.066;2023-07-02T01:44:17;17.10;97.10
23475;DHT22;11910;52.086;21.066;2023-07-02T01:46:43;17.10;96.90
23475;DHT22;11910;52.086;21.066;2023-07-02T01:49:08;17.00;96.50
23475;DHT22;11910;52.086;21.066;2023-07-02T01:51:34;17.00;96.60
23475;DHT22;11910;52.086;21.066;2023-07-02T01:54:00;17.00;96.70
23475;DHT22;11910;52.086;21.066;2023-07-02T01:56:26;16.90;96.70
23475;DHT22;11910;52.086;21.066;2023-07-02T01:58:52;16.90;96.60
23475;DHT22;11910;52.086;21.066;2023-07-02T02:01:18;16.90;97.30
23475;DHT22;11910;52.086;21.066;2023-07-02T02:03:43;16.80;96.70
23475;DHT22;11910;52.086;21.066;2023-07-02T02:06:09;16.80;97.70
23475;DHT22;11910;52.086;21.066;2023-07-02T02:08:34;16.80;96.80
23475;DHT22;11910;52.086;21.066;2023-07-02T02:11:00;16.80;96.30
23475;DHT22;11910;52.086;21.066;2023-07-02T02:13:26;16.80;96.50
23475;DHT22;11910;52.086;21.066;2023-07-02T02:15:51;16.80;96.30
23475;DHT22;11910;52.086;21.066;2023-07-02T02:18:17;16.90;96.90
23475;DHT22;11910;52.086;21.066;2023-07-02T02:20:43;16.90;96.70
23475;DHT22;11910;52.086;21.066;2023-07-02T02:23:08;17.00;96.90
23475;DHT22;11910;52.086;21.066;2023-07-02T02:25:34;17.00;97.90
23475;DHT22;11910;52.086;21.066;2023-07-02T02:27:59;17.00;98.60
23475;DHT22;11910;52.086;21.066;2023-07-02T02:30:25;17.10;98.00
23475;DHT22;11910;52.086;21.066;2023-07-02T02:32:51;17.10;99.00
23475;DHT22;11910;52.086;21.066;2023-07-02T02:35:16;17.10;99.50
23475;DHT22;11910;52.086;21.066;2023-07-02T02:37:42;17.20;99.30
23475;DHT22;11910;52.086;21.066;2023-07-02T02:40:08;17.20;99.00
23475;DHT22;11910;52.086;21.066;2023-07-02T02:42:38;17.20;99.60
23475;DHT22;11910;52.086;21.066;2023-07-02T02:45:04;17.30;99.90
23475;DHT22;11910;52.086;21.066;2023-07-02T02:47:30;17.40;99.90
23475;DHT22;11910;52.086;21.066;2023-07-02T02:49:56;17.50;99.90
23475;DHT22;11910;52.086;21.066;2023-07-02T02:52:21;17.50;99.90
23475;DHT22;11910;52.086;21.066;2023-07-02T02:54:47;17.50;99.90
23475;DHT22;11910;52.086;21.066;2023-07-02T02:57:12;17.60;99.90
23475;DHT22;11910;52.086;21.066;2023-07-02T02:59:39;17.70;99.90
23475;DHT22;11910;52.086;21.066;2023-07-02T03:02:04;17.70;99.90
23475;DHT22;11910;52.086;21.066;2023-07-02T03:04:30;17.70;99.90
23475;DHT22;11910;52.086;21.066;2023-07-02T03:06:56;17.70;99.90
23475;DHT22;11910;52.086;21.066;2023-07-02T03:09:21;17.80;99.90
23475;DHT22;11910;52.086;21.066;2023-07-02T03:11:47;17.80;99.90
23475;DHT22;11910;52.086;21.066;2023-07-02T03:14:13;17.90;99.90
23475;DHT22;11910;52.086;21.066;2023-07-02T03:16:41;18.00;99.90
23475;DHT22;11910;52.086;21.066;2023-07-02T03:19:06;18.00;99.90
23475;DHT22;11910;52.086;21.066;2023-07-02T03:21:32;18.00;99.90
23475;DHT22;11910;52.086;21.066;2023-07-02T03:23:58;18.10;99.90
23475;DHT22;11910;52.086;21.066;2023-07-02T03:26:23;18.10;99.90
23475;DHT22;11910;52.086;21.066;2023-07-02T03:28:49;18.10;99.90
23475;DHT22;11910;52.086;21.066;2023-07-02T03:31:15;18.20;99.90
23475;DHT22;11910;52.086;21.066;2023-07-02T03:33:40;18.20;99.90
23475;DHT22;11910;52.086;21.066;2023-07-02T03:36:06;18.20;99.90
23475;DHT22;11910;52.086;21.066;2023-07-02T03:38:32;18.30;99.90
23475;DHT22;11910;52.086;21.066;2023-07-02T03:40:57;18.40;99.90
23475;DHT22;11910;52.086;21.066;2023-07-02T03:43:23;18.40;99.90
23475;DHT22;11910;52.086;21.066;2023-07-02T03:45:51;18.50;99.90
23475;DHT22;11910;52.086;21.066;2023-07-02T03:48:17;18.50;99.90
23475;DHT22;11910;52.086;21.066;2023-07-02T03:50:42;18.50;99.90
23475;DHT22;11910;52.086;21.066;2023-07-02T03:53:08;18.50;99.90
23475;DHT22;11910;52.086;21.066;2023-07-02T03:55:33;18.60;99.90
23475;DHT22;11910;52.086;21.066;2023-07-02T03:57:59;18.60;99.90
23475;DHT22;11910;52.086;21.066;2023-07-02T04:00:24;18.60;99.90
23475;DHT22;11910;52.086;21.066;2023-07-02T04:02:50;18.70;99.90
23475;DHT22;11910;52.086;21.066;2023-07-02T04:05:16;18.60;99.90
23475;DHT22;11910;52.086;21.066;2023-07-02T04:07:41;18.60;99.90
23475;DHT22;11910;52.086;21.066;2023-07-02T04:10:07;18.70;99.90
23475;DHT22;11910;52.086;21.066;2023-07-02T04:12:33;18.70;99.90
23475;DHT22;11910;52.086;21.066;2023-07-02T04:14:58;18.70;99.90
23475;DHT22;11910;52.086;21.066;2023-07-02T04:17:24;18.80;99.90
23475;DHT22;11910;52.086;21.066;2023-07-02T04:19:50;18.80;99.90
23475;DHT22;11910;52.086;21.066;2023-07-02T04:22:15;18.80;99.90
23475;DHT22;11910;52.086;21.066;2023-07-02T04:24:41;18.90;99.90
23475;DHT22;11910;52.086;21.066;2023-07-02T04:27:07;18.90;99.90
23475;DHT22;11910;52.086;21.066;2023-07-02T04:29:32;18.90;99.90
23475;DHT22;11910;52.086;21.066;2023-07-02T04:31:58;19.00;99.90
23475;DHT22;11910;52.086;21.066;2023-07-02T04:34:23;19.00;99.90
23475;DHT22;11910;52.086;21.066;2023-07-02T04:36:49;19.00;99.90
23475;DHT22;11910;52.086;21.066;2023-07-02T04:39:15;19.10;99.90
23475;DHT22;11910;52.086;21.066;2023-07-02T04:41:40;19.20;99.90
23475;DHT22;11910;52.086;21.066;2023-07-02T04:44:06;19.20;99.90
23475;DHT22;11910;52.086;21.066;2023-07-02T04:46:32;19.20;99.90
23475;DHT22;11910;52.086;21.066;2023-07-02T04:48:57;19.20;99.90
23475;DHT22;11910;52.086;21.066;2023-07-02T04:51:23;19.20;99.90
23475;DHT22;11910;52.086;21.066;2023-07-02T04:53:48;19.30;99.90
23475;DHT22;11910;52.086;21.066;2023-07-02T04:56:14;19.30;99.90
23475;DHT22;11910;52.086;21.066;2023-07-02T04:58:39;19.30;99.90
23475;DHT22;11910;52.086;21.066;2023-07-02T05:01:05;19.30;99.90
23475;DHT22;11910;52.086;21.066;2023-07-02T05:03:30;19.40;99.90
23475;DHT22;11910;52.086;21.066;2023-07-02T05:05:56;19.40;99.90
23475;DHT22;11910;52.086;21.066;2023-07-02T05:08:22;19.40;99.90
23475;DHT22;11910;52.086;21.066;2023-07-02T05:10:47;19.40;99.90
23475;DHT22;11910;52.086;21.066;2023-07-02T05:13:13;19.40;99.90
23475;DHT22;11910;52.086;21.066;2023-07-02T05:15:40;19.40;99.90
23475;DHT22;11910;52.086;21.066;2023-07-02T05:18:05;19.50;99.80
23475;DHT22;11910;52.086;21.066;2023-07-02T05:20:32;19.40;99.80
23475;DHT22;11910;52.086;21.066;2023-07-02T05:22:57;19.40;99.90
23475;DHT22;11910;52.086;21.066;2023-07-02T05:25:23;19.50;99.90
23475;DHT22;11910;52.086;21.066;2023-07-02T05:27:48;19.50;99.90
23475;DHT22;11910;52.086;21.066;2023-07-02T05:30:14;19.60;99.80
23475;DHT22;11910;52.086;21.066;2023-07-02T05:32:40;19.60;99.90
23475;DHT22;11910;52.086;21.066;2023-07-02T05:35:05;19.70;99.90
23475;DHT22;11910;52.086;21.066;2023-07-02T05:37:31;19.70;99.50
23475;DHT22;11910;52.086;21.066;2023-07-02T05:39:57;19.80;99.10
23475;DHT22;11910;52.086;21.066;2023-07-02T05:42:22;19.90;99.90
23475;DHT22;11910;52.086;21.066;2023-07-02T05:44:48;20.00;99.60
23475;DHT22;11910;52.086;21.066;2023-07-02T05:47:13;20.10;98.50
23475;DHT22;11910;52.086;21.066;2023-07-02T05:49:41;20.20;97.80
23475;DHT22;11910;52.086;21.066;2023-07-02T05:52:08;20.30;97.30
23475;DHT22;11910;52.086;21.066;2023-07-02T05:54:33;20.30;97.10
23475;DHT22;11910;52.086;21.066;2023-07-02T05:56:59;20.40;96.90
23475;DHT22;11910;52.086;21.066;2023-07-02T05:59:24;20.40;96.70
23475;DHT22;11910;52.086;21.066;2023-07-02T06:01:50;20.40;96.70
23475;DHT22;11910;52.086;21.066;2023-07-02T06:04:16;20.40;96.80
23475;DHT22;11910;52.086;21.066;2023-07-02T06:06:42;20.40;97.00
23475;DHT22;11910;52.086;21.066;2023-07-02T06:09:07;20.50;96.20
23475;DHT22;11910;52.086;21.066;2023-07-02T06:11:33;20.50;96.20
23475;DHT22;11910;52.086;21.066;2023-07-02T06:13:59;20.50;95.90
23475;DHT22;11910;52.086;21.066;2023-07-02T06:16:25;20.60;96.00
23475;DHT22;11910;52.086;21.066;2023-07-02T06:18:50;20.60;96.20
23475;DHT22;11910;52.086;21.066;2023-07-02T06:21:16;20.60;96.30
23475;DHT22;11910;52.086;21.066;2023-07-02T06:23:43;20.70;95.90
23475;DHT22;11910;52.086;21.066;2023-07-02T06:26:08;20.70;95.90
23475;DHT22;11910;52.086;21.066;2023-07-02T06:28:34;20.80;96.10
23475;DHT22;11910;52.086;21.066;2023-07-02T06:31:00;20.90;96.20
23475;DHT22;11910;52.086;21.066;2023-07-02T06:33:25;20.90;95.50
23475;DHT22;11910;52.086;21.066;2023-07-02T06:35:51;21.00;94.30
23475;DHT22;11910;52.086;21.066;2023-07-02T06:38:16;21.10;94.30
23475;DHT22;11910;52.086;21.066;2023-07-02T06:40:42;21.20;93.60
23475;DHT22;11910;52.086;21.066;2023-07-02T06:43:07;21.20;93.40
23475;DHT22;11910;52.086;21.066;2023-07-02T06:45:33;21.20;93.00
23475;DHT22;11910;52.086;21.066;2023-07-02T06:47:58;21.30;92.20
23475;DHT22;11910;52.086;21.066;2023-07-02T06:50:24;21.30;92.10
23475;DHT22;11910;52.086;21.066;2023-07-02T06:52:50;21.40;91.90
23475;DHT22;11910;52.086;21.066;2023-07-02T06:55:15;21.40;91.80
23475;DHT22;11910;52.086;21.066;2023-07-02T06:57:45;21.40;90.90
23475;DHT22;11910;52.086;21.066;2023-07-02T07:00:12;21.50;91.10
23475;DHT22;11910;52.086;21.066;2023-07-02T07:02:37;21.50;91.20
23475;DHT22;11910;52.086;21.066;2023-07-02T07:05:03;21.50;91.10
23475;DHT22;11910;52.086;21.066;2023-07-02T07:07:29;21.50;91.30
23475;DHT22;11910;52.086;21.066;2023-07-02T07:09:55;21.50;91.40
23475;DHT22;11910;52.086;21.066;2023-07-02T07:12:21;21.60;90.90
23475;DHT22;11910;52.086;21.066;2023-07-02T07:14:46;21.60;91.00
23475;DHT22;11910;52.086;21.066;2023-07-02T07:17:12;21.70;91.80
23475;DHT22;11910;52.086;21.066;2023-07-02T07:19:37;21.60;90.70
23475;DHT22;11910;52.086;21.066;2023-07-02T07:22:03;21.60;90.90
23475;DHT22;11910;52.086;21.066;2023-07-02T07:24:29;21.60;90.70
23475;DHT22;11910;52.086;21.066;2023-07-02T07:26:54;21.60;91.20
23475;DHT22;11910;52.086;21.066;2023-07-02T07:29:21;21.60;90.90
23475;DHT22;11910;52.086;21.066;2023-07-02T07:31:47;21.60;90.90
23475;DHT22;11910;52.086;21.066;2023-07-02T07:34:12;21.60;91.40
23475;DHT22;11910;52.086;21.066;2023-07-02T07:36:38;21.70;90.80
23475;DHT22;11910;52.086;21.066;2023-07-02T07:39:03;21.90;91.50
23475;DHT22;11910;52.086;21.066;2023-07-02T07:41:29;22.00;90.40
23475;DHT22;11910;52.086;21.066;2023-07-02T07:43:55;22.00;90.20
23475;DHT22;11910;52.086;21.066;2023-07-02T07:46:20;22.10;90.00
23475;DHT22;11910;52.086;21.066;2023-07-02T07:48:46;22.10;90.50
23475;DHT22;11910;52.086;21.066;2023-07-02T07:51:12;22.10;90.00
23475;DHT22;11910;52.086;21.066;2023-07-02T07:53:38;22.10;89.40
23475;DHT22;11910;52.086;21.066;2023-07-02T07:56:05;22.20;90.60
23475;DHT22;11910;52.086;21.066;2023-07-02T07:58:30;22.40;90.00
23475;DHT22;11910;52.086;21.066;2023-07-02T08:00:57;22.40;89.40
23475;DHT22;11910;52.086;21.066;2023-07-02T08:03:23;22.30;88.70
23475;DHT22;11910;52.086;21.066;2023-07-02T08:05:49;22.30;90.10
23475;DHT22;11910;52.086;21.066;2023-07-02T08:08:14;22.20;89.60
23475;DHT22;11910;52.086;21.066;2023-07-02T08:10:40;22.00;89.40
23475;DHT22;11910;52.086;21.066;2023-07-02T08:13:06;22.00;90.00
23475;DHT22;11910;52.086;21.066;2023-07-02T08:15:33;21.90;90.50
23475;DHT22;11910;52.086;21.066;2023-07-02T08:17:59;22.00;90.60
23475;DHT22;11910;52.086;21.066;2023-07-02T08:20:25;22.10;90.20
23475;DHT22;11910;52.086;21.066;2023-07-02T08:22:51;22.40;90.80
23475;DHT22;11910;52.086;21.066;2023-07-02T08:25:17;22.50;90.20
23475;DHT22;11910;52.086;21.066;2023-07-02T08:27:43;22.50;89.80
23475;DHT22;11910;52.086;21.066;2023-07-02T08:30:09;22.40;89.80
23475;DHT22;11910;52.086;21.066;2023-07-02T08:32:35;22.30;90.00
23475;DHT22;11910;52.086;21.066;2023-07-02T08:35:01;22.30;90.20
23475;DHT22;11910;52.086;21.066;2023-07-02T08:37:26;22.40;90.70
23475;DHT22;11910;52.086;21.066;2023-07-02T08:39:52;22.30;90.30
23475;DHT22;11910;52.086;21.066;2023-07-02T08:42:18;22.30;90.40
23475;DHT22;11910;52.086;21.066;2023-07-02T08:44:47;22.30;90.10
23475;DHT22;11910;52.086;21.066;2023-07-02T08:47:14;22.30;90.50
23475;DHT22;11910;52.086;21.066;2023-07-02T08:49:41;22.20;90.30
23475;DHT22;11910;52.086;21.066;2023-07-02T08:52:07;22.10;89.90
23475;DHT22;11910;52.086;21.066;2023-07-02T08:54:33;22.10;90.10
23475;DHT22;11910;52.086;21.066;2023-07-02T08:56:59;22.10;90.80
23475;DHT22;11910;52.086;21.066;2023-07-02T08:59:26;22.10;90.30
23475;DHT22;11910;52.086;21.066;2023-07-02T09:01:52;22.30;90.40
23475;DHT22;11910;52.086;21.066;2023-07-02T09:04:19;22.40;90.50
23475;DHT22;11910;52.086;21.066;2023-07-02T09:06:47;22.60;90.50
23475;DHT22;11910;52.086;21.066;2023-07-02T09:09:13;22.90;90.50
23475;DHT22;11910;52.086;21.066;2023-07-02T09:11:50;23.00;90.00
23475;DHT22;11910;52.086;21.066;2023-07-02T09:14:30;22.90;88.20
23475;DHT22;11910;52.086;21.066;2023-07-02T09:19:28;22.70;89.90
23475;DHT22;11910;52.086;21.066;2023-07-02T09:21:57;22.40;90.00
23475;DHT22;11910;52.086;21.066;2023-07-02T09:24:25;22.20;90.10
23475;DHT22;11910;52.086;21.066;2023-07-02T09:26:52;22.00;90.50
23475;DHT22;11910;52.086;21.066;2023-07-02T09:31:50;21.70;91.70
23475;DHT22;11910;52.086;21.066;2023-07-02T09:34:16;21.70;92.00
23475;DHT22;11910;52.086;21.066;2023-07-02T09:36:42;21.70;92.30
23475;DHT22;11910;52.086;21.066;2023-07-02T09:39:13;21.70;91.50
23475;DHT22;11910;52.086;21.066;2023-07-02T09:41:42;21.70;91.90
23475;DHT22;11910;52.086;21.066;2023-07-02T09:44:09;21.70;91.60
23475;DHT22;11910;52.086;21.066;2023-07-02T09:46:42;21.70;91.90
23475;DHT22;11910;52.086;21.066;2023-07-02T09:49:13;21.80;91.70
23475;DHT22;11910;52.086;21.066;2023-07-02T09:51:40;21.90;91.70
23475;DHT22;11910;52.086;21.066;2023-07-02T09:54:06;21.90;91.70
23475;DHT22;11910;52.086;21.066;2023-07-02T09:56:31;22.20;91.60
23475;DHT22;11910;52.086;21.066;2023-07-02T09:58:57;22.30;91.30
23475;DHT22;11910;52.086;21.066;2023-07-02T10:01:22;22.20;91.10
23475;DHT22;11910;52.086;21.066;2023-07-02T10:03:48;22.10;90.90
23475;DHT22;11910;52.086;21.066;2023-07-02T10:06:14;22.00;91.00
23475;DHT22;11910;52.086;21.066;2023-07-02T10:08:39;21.90;91.20
23475;DHT22;11910;52.086;21.066;2023-07-02T10:13:34;22.30;91.50
23475;DHT22;11910;52.086;21.066;2023-07-02T10:16:03;22.60;90.90
23475;DHT22;11910;52.086;21.066;2023-07-02T10:18:29;23.00;91.00
23475;DHT22;11910;52.086;21.066;2023-07-02T10:20:55;23.50;89.10
23475;DHT22;11910;52.086;21.066;2023-07-02T10:23:20;23.50;88.90
23475;DHT22;11910;52.086;21.066;2023-07-02T10:25:57;23.40;88.10
23475;DHT22;11910;52.086;21.066;2023-07-02T10:28:23;23.40;89.50
23475;DHT22;11910;52.086;21.066;2023-07-02T10:30:52;23.40;89.00
23475;DHT22;11910;52.086;21.066;2023-07-02T10:33:19;23.30;88.80
23475;DHT22;11910;52.086;21.066;2023-07-02T10:35:47;23.30;87.10
23475;DHT22;11910;52.086;21.066;2023-07-02T10:38:21;23.30;87.40
23475;DHT22;11910;52.086;21.066;2023-07-02T10:41:00;23.40;88.20
23475;DHT22;11910;52.086;21.066;2023-07-02T10:43:30;23.90;84.80
23475;DHT22;11910;52.086;21.066;2023-07-02T10:45:56;24.80;80.80
23475;DHT22;11910;52.086;21.066;2023-07-02T10:48:22;24.90;79.10
23475;DHT22;11910;52.086;21.066;2023-07-02T10:50:48;25.40;77.60
23475;DHT22;11910;52.086;21.066;2023-07-02T10:53:17;26.80;77.10
23475;DHT22;11910;52.086;21.066;2023-07-02T10:55:44;26.70;74.10
23475;DHT22;11910;52.086;21.066;2023-07-02T10:58:10;26.40;73.30
23475;DHT22;11910;52.086;21.066;2023-07-02T11:00:46;26.20;74.90
23475;DHT22;11910;52.086;21.066;2023-07-02T11:03:20;25.80;74.60
23475;DHT22;11910;52.086;21.066;2023-07-02T11:05:47;25.70;75.80
23475;DHT22;11910;52.086;21.066;2023-07-02T11:08:13;25.50;74.60
23475;DHT22;11910;52.086;21.066;2023-07-02T11:10:38;25.70;75.30
23475;DHT22;11910;52.086;21.066;2023-07-02T11:13:17;25.80;74.90
23475;DHT22;11910;52.086;21.066;2023-07-02T11:15:43;25.90;74.40
23475;DHT22;11910;52.086;21.066;2023-07-02T11:18:18;25.90;74.40
23475;DHT22;11910;52.086;21.066;2023-07-02T11:20:46;26.20;74.30
23475;DHT22;11910;52.086;21.066;2023-07-02T11:23:23;26.00;73.00
23475;DHT22;11910;52.086;21.066;2023-07-02T11:26:01;26.10;73.60
23475;DHT22;11910;52.086;21.066;2023-07-02T11:28:30;26.90;70.90
23475;DHT22;11910;52.086;21.066;2023-07-02T11:30:57;28.30;68.60
23475;DHT22;11910;52.086;21.066;2023-07-02T11:33:33;28.20;65.30
23475;DHT22;11910;52.086;21.066;2023-07-02T11:35:59;29.30;61.20
23475;DHT22;11910;52.086;21.066;2023-07-02T11:38:25;30.70;59.60
23475;DHT22;11910;52.086;21.066;2023-07-02T11:40:50;29.10;59.60
23475;DHT22;11910;52.086;21.066;2023-07-02T11:43:16;27.90;62.10
23475;DHT22;11910;52.086;21.066;2023-07-02T11:45:43;27.30;64.90
23475;DHT22;11910;52.086;21.066;2023-07-02T11:48:09;26.80;67.80
23475;DHT22;11910;52.086;21.066;2023-07-02T11:50:34;26.30;67.60
23475;DHT22;11910;52.086;21.066;2023-07-02T11:53:00;25.70;72.00
23475;DHT22;11910;52.086;21.066;2023-07-02T11:55:25;25.10;74.10
23475;DHT22;11910;52.086;21.066;2023-07-02T11:57:51;25.00;75.70
23475;DHT22;11910;52.086;21.066;2023-07-02T12:00:17;25.00;77.20
23475;DHT22;11910;52.086;21.066;2023-07-02T12:02:43;24.80;76.10
23475;DHT22;11910;52.086;21.066;2023-07-02T12:05:10;24.70;77.00
23475;DHT22;11910;52.086;21.066;2023-07-02T12:07:35;24.80;76.50
23475;DHT22;11910;52.086;21.066;2023-07-02T12:10:01;24.90;75.60
23475;DHT22;11910;52.086;21.066;2023-07-02T12:12:27;25.00;75.10
23475;DHT22;11910;52.086;21.066;2023-07-02T12:14:52;25.20;75.50
23475;DHT22;11910;52.086;21.066;2023-07-02T12:17:18;25.20;74.30
23475;DHT22;11910;52.086;21.066;2023-07-02T12:19:44;25.70;75.10
23475;DHT22;11910;52.086;21.066;2023-07-02T12:22:10;26.20;73.30
23475;DHT22;11910;52.086;21.066;2023-07-02T12:24:35;26.80;71.50
23475;DHT22;11910;52.086;21.066;2023-07-02T12:27:02;26.10;71.90
23475;DHT22;11910;52.086;21.066;2023-07-02T12:29:28;25.80;72.70
23475;DHT22;11910;52.086;21.066;2023-07-02T12:31:53;25.70;75.10
23475;DHT22;11910;52.086;21.066;2023-07-02T12:34:19;25.70;73.90
23475;DHT22;11910;52.086;21.066;2023-07-02T12:36:44;25.40;70.90
23475;DHT22;11910;52.086;21.066;2023-07-02T12:39:10;25.40;71.30
23475;DHT22;11910;52.086;21.066;2023-07-02T12:41:36;27.40;69.00
23475;DHT22;11910;52.086;21.066;2023-07-02T12:44:01;26.60;67.50
23475;DHT22;11910;52.086;21.066;2023-07-02T12:46:27;26.40;67.90
23475;DHT22;11910;52.086;21.066;2023-07-02T12:48:53;26.50;68.70
23475;DHT22;11910;52.086;21.066;2023-07-02T12:51:18;26.80;66.00
23475;DHT22;11910;52.086;21.066;2023-07-02T12:53:44;27.50;62.30
23475;DHT22;11910;52.086;21.066;2023-07-02T12:56:10;28.20;61.00
23475;DHT22;11910;52.086;21.066;2023-07-02T12:58:35;27.60;60.20
23475;DHT22;11910;52.086;21.066;2023-07-02T13:01:01;27.30;60.10
23475;DHT22;11910;52.086;21.066;2023-07-02T13:03:30;26.90;61.80
23475;DHT22;11910;52.086;21.066;2023-07-02T13:05:56;26.50;61.40
23475;DHT22;11910;52.086;21.066;2023-07-02T13:08:21;26.40;64.60
23475;DHT22;11910;52.086;21.066;2023-07-02T13:10:47;26.30;63.20
23475;DHT22;11910;52.086;21.066;2023-07-02T13:13:13;26.00;61.20
23475;DHT22;11910;52.086;21.066;2023-07-02T13:15:39;25.90;63.30
23475;DHT22;11910;52.086;21.066;2023-07-02T13:18:04;25.70;59.00
23475;DHT22;11910;52.086;21.066;2023-07-02T13:20:30;25.80;58.40
23475;DHT22;11910;52.086;21.066;2023-07-02T13:22:55;26.30;57.40
23475;DHT22;11910;52.086;21.066;2023-07-02T13:25:21;28.40;55.90
23475;DHT22;11910;52.086;21.066;2023-07-02T14:04:47;24.90;55.00
23475;DHT22;11910;52.086;21.066;2023-07-02T14:07:13;24.70;56.70
23475;DHT22;11910;52.086;21.066;2023-07-02T14:09:39;24.50;57.30
23475;DHT22;11910;52.086;21.066;2023-07-02T14:12:05;24.30;57.70
23475;DHT22;11910;52.086;21.066;2023-07-02T14:14:31;24.30;58.80
23475;DHT22;11910;52.086;21.066;2023-07-02T14:16:56;24.10;58.20
23475;DHT22;11910;52.086;21.066;2023-07-02T14:19:22;24.10;58.40
23475;DHT22;11910;52.086;21.066;2023-07-02T14:21:47;24.10;58.60
23475;DHT22;11910;52.086;21.066;2023-07-02T14:24:14;24.00;59.10
23475;DHT22;11910;52.086;21.066;2023-07-02T14:26:40;24.00;58.90
23475;DHT22;11910;52.086;21.066;2023-07-02T14:29:05;24.00;59.00
23475;DHT22;11910;52.086;21.066;2023-07-02T14:31:31;24.10;59.60
23475;DHT22;11910;52.086;21.066;2023-07-02T14:33:56;24.20;58.50
23475;DHT22;11910;52.086;21.066;2023-07-02T14:36:22;24.30;59.30
23475;DHT22;11910;52.086;21.066;2023-07-02T14:39:40;24.20;55.90
23475;DHT22;11910;52.086;21.066;2023-07-02T14:42:06;24.30;56.20
23475;DHT22;11910;52.086;21.066;2023-07-02T14:44:32;24.30;57.20
23475;DHT22;11910;52.086;21.066;2023-07-02T14:46:58;24.50;57.20
23475;DHT22;11910;52.086;21.066;2023-07-02T14:49:23;24.70;57.10
23475;DHT22;11910;52.086;21.066;2023-07-02T14:51:49;24.70;55.70
23475;DHT22;11910;52.086;21.066;2023-07-02T14:54:15;24.70;55.70
23475;DHT22;11910;52.086;21.066;2023-07-02T14:56:41;24.80;56.90
23475;DHT22;11910;52.086;21.066;2023-07-02T14:59:06;24.80;57.90
23475;DHT22;11910;52.086;21.066;2023-07-02T15:01:32;24.60;57.10
23475;DHT22;11910;52.086;21.066;2023-07-02T15:03:58;24.50;57.30
23475;DHT22;11910;52.086;21.066;2023-07-02T15:06:23;24.50;56.40
23475;DHT22;11910;52.086;21.066;2023-07-02T15:08:49;24.50;58.20
23475;DHT22;11910;52.086;21.066;2023-07-02T15:11:15;24.40;57.80
23475;DHT22;11910;52.086;21.066;2023-07-02T15:13:41;24.20;58.30
23475;DHT22;11910;52.086;21.066;2023-07-02T15:16:08;24.20;59.10
23475;DHT22;11910;52.086;21.066;2023-07-02T15:18:35;24.10;56.70
23475;DHT22;11910;52.086;21.066;2023-07-02T15:21:03;24.00;57.20
23475;DHT22;11910;52.086;21.066;2023-07-02T15:23:29;23.90;57.90
23475;DHT22;11910;52.086;21.066;2023-07-02T15:26:00;23.80;57.20
23475;DHT22;11910;52.086;21.066;2023-07-02T15:28:27;23.70;57.90
23475;DHT22;11910;52.086;21.066;2023-07-02T15:30:58;23.70;58.60
23475;DHT22;11910;52.086;21.066;2023-07-02T15:33:24;23.60;58.80
23475;DHT22;11910;52.086;21.066;2023-07-02T15:35:51;23.60;58.70
23475;DHT22;11910;52.086;21.066;2023-07-02T15:38:17;23.60;58.80
23475;DHT22;11910;52.086;21.066;2023-07-02T15:40:45;23.60;59.40
23475;DHT22;11910;52.086;21.066;2023-07-02T15:43:11;23.60;59.40
23475;DHT22;11910;52.086;21.066;2023-07-02T15:45:37;23.60;58.90
23475;DHT22;11910;52.086;21.066;2023-07-02T15:48:02;23.60;59.10
23475;DHT22;11910;52.086;21.066;2023-07-02T15:50:28;23.60;59.20
23475;DHT22;11910;52.086;21.066;2023-07-02T15:52:54;23.70;58.40
23475;DHT22;11910;52.086;21.066;2023-07-02T15:55:20;23.80;58.40